Aviation Digital Data Service (ADDS)

Output produced by TAFs form (2044 UTC 26 June 2016)
found at http://www.aviationweather.gov/adds/tafs/
 
KRIC 261728Z 2618/2718 08007KT P6SM FEW020 BKN300 
     FM270000 13003KT P6SM FEW250 
     FM270900 VRB02KT 2SM BR BKN007 
     FM271300 19006KT P6SM BKN200